Time,TemperatureF,DewpointF,PressureIn,WindDirection,WindDirectionDegrees,WindSpeedMPH,WindSpeedGustMPH,Humidity,HourlyPrecipIn,Conditions,Clouds,dailyrainin,SoftwareType,DateUTC
2013-04-07 00:22:00,33.0,32.0,-100.00,NW,315,1.0,2.0,99,0.00,,,0.00,,2013-04-07 05:22:00,
2013-04-07 00:33:00,31.0,30.0,-100.00,NNE,30,4.0,6.0,99,0.00,,,0.00,,2013-04-07 05:33:00,
2013-04-07 00:42:00,32.0,32.0,-100.00,NNE,20,4.0,4.0,99,0.00,,,0.00,,2013-04-07 05:42:00,
2013-04-07 01:12:00,31.0,30.0,-100.00,NNE,25,12.0,13.0,99,0.00,,,0.00,,2013-04-07 06:12:00,
2013-04-07 01:32:00,31.0,30.0,-100.00,NE,40,10.0,12.0,99,0.00,,,0.00,,2013-04-07 06:32:00,
2013-04-07 02:22:00,32.0,32.0,-100.00,NE,35,4.0,7.0,99,0.00,,,0.00,,2013-04-07 07:22:00,
2013-04-07 02:32:00,33.0,32.0,-100.00,NNE,30,7.0,9.0,99,0.00,,,0.00,,2013-04-07 07:32:00,
2013-04-07 02:42:00,33.0,32.0,-100.00,NNE,30,3.0,6.0,99,0.00,,,0.00,,2013-04-07 07:42:00,
2013-04-07 02:52:00,33.0,32.0,-100.00,ENE,65,3.0,6.0,99,0.00,,,0.00,,2013-04-07 07:52:00,
2013-04-07 03:02:00,33.0,32.0,-100.00,NE,55,4.0,6.0,99,0.00,,,0.00,,2013-04-07 08:02:00,
2013-04-07 03:12:00,33.0,32.0,-100.00,NE,50,6.0,7.0,99,0.00,,,0.00,,2013-04-07 08:12:00,
2013-04-07 03:22:00,33.0,32.0,-100.00,NNE,25,7.0,9.0,99,0.00,,,0.00,,2013-04-07 08:22:00,
2013-04-07 03:32:00,33.0,32.0,-100.00,NNE,20,4.0,7.0,99,0.00,,,0.00,,2013-04-07 08:32:00,
2013-04-07 03:42:00,33.0,32.0,-100.00,NNE,20,7.0,9.0,99,0.00,,,0.00,,2013-04-07 08:42:00,
2013-04-07 03:52:00,33.0,32.0,-100.00,North,10,5.0,9.0,99,0.00,,,0.00,,2013-04-07 08:52:00,
2013-04-07 04:02:00,33.0,32.0,-100.00,NE,35,7.0,9.0,99,0.00,,,0.00,,2013-04-07 09:02:00,
2013-04-07 04:12:00,33.0,32.0,-100.00,ENE,60,6.0,8.0,99,0.00,,,0.00,,2013-04-07 09:12:00,
2013-04-07 04:22:00,33.0,32.0,-100.00,NE,35,5.0,8.0,99,0.00,,,0.00,,2013-04-07 09:22:00,
2013-04-07 04:33:00,33.0,32.0,-100.00,ENE,60,5.0,9.0,99,0.00,,,0.00,,2013-04-07 09:33:00,
2013-04-07 04:43:00,33.0,32.0,-100.00,NE,50,7.0,10.0,99,0.00,,,0.00,,2013-04-07 09:43:00,
2013-04-07 04:53:00,33.0,32.0,-100.00,NE,45,8.0,11.0,99,0.00,,,0.00,,2013-04-07 09:53:00,
2013-04-07 05:03:00,33.0,32.0,-100.00,NE,40,7.0,10.0,99,0.00,,,0.00,,2013-04-07 10:03:00,
2013-04-07 05:13:00,32.0,32.0,-100.00,NE,40,7.0,12.0,99,0.00,,,0.00,,2013-04-07 10:13:00,
2013-04-07 05:22:00,33.0,32.0,-100.00,NE,55,7.0,11.0,99,0.00,,,0.00,,2013-04-07 10:22:00,
2013-04-07 05:33:00,33.0,32.0,-100.00,ENE,60,8.0,9.0,99,0.00,,,0.00,,2013-04-07 10:33:00,
2013-04-07 05:42:00,33.0,32.0,-100.00,NE,45,7.0,10.0,99,0.00,,,0.00,,2013-04-07 10:42:00,
2013-04-07 05:52:00,32.0,32.0,-100.00,NE,45,9.0,12.0,99,0.00,,,0.00,,2013-04-07 10:52:00,
2013-04-07 06:02:00,32.0,32.0,-100.00,NE,40,7.0,10.0,99,0.00,,,0.00,,2013-04-07 11:02:00,
2013-04-07 06:22:00,32.0,32.0,-100.00,NE,45,7.0,11.0,99,0.00,,,0.00,,2013-04-07 11:22:00,
2013-04-07 06:32:00,32.0,32.0,-100.00,NE,50,7.0,10.0,99,0.00,,,0.00,,2013-04-07 11:32:00,
2013-04-07 08:03:00,31.0,30.0,-100.00,ENE,70,8.0,11.0,99,0.00,,,0.00,,2013-04-07 13:03:00,
2013-04-07 09:23:00,32.0,32.0,-100.00,East,100,7.0,9.0,99,0.00,,,0.00,,2013-04-07 14:23:00,
2013-04-07 09:32:00,32.0,32.0,-100.00,East,95,7.0,11.0,99,0.00,,,0.00,,2013-04-07 14:32:00,
2013-04-07 10:33:00,34.0,34.0,-100.00,East,95,11.0,14.0,99,0.00,,,0.00,,2013-04-07 15:33:00,
2013-04-07 10:43:00,35.0,34.0,-100.00,East,90,12.0,16.0,99,0.00,,,0.00,,2013-04-07 15:43:00,
2013-04-07 10:53:00,36.0,36.0,-100.00,East,85,12.0,16.0,98,0.00,,,0.00,,2013-04-07 15:53:00,
2013-04-07 11:03:00,37.0,36.0,-100.00,ESE,120,13.0,17.0,93,0.00,,,0.00,,2013-04-07 16:03:00,
2013-04-07 11:13:00,38.0,36.0,-100.00,ESE,110,10.0,16.0,91,0.00,,,0.00,,2013-04-07 16:13:00,
2013-04-07 11:24:00,39.0,36.0,-100.00,ESE,105,10.0,15.0,85,0.00,,,0.00,,2013-04-07 16:24:00,
2013-04-07 11:33:00,40.0,36.0,-100.00,East,100,9.0,18.0,83,0.00,,,0.00,,2013-04-07 16:33:00,
2013-04-07 11:42:00,41.0,36.0,-100.00,ESE,115,9.0,17.0,79,0.00,,,0.00,,2013-04-07 16:42:00,
2013-04-07 11:53:00,42.0,36.0,-100.00,ESE,115,10.0,18.0,76,0.00,,,0.00,,2013-04-07 16:53:00,
2013-04-07 12:04:00,43.0,36.0,-100.00,East,95,11.0,17.0,73,0.00,,,0.00,,2013-04-07 17:04:00,
2013-04-07 12:13:00,43.0,36.0,-100.00,ESE,105,11.0,18.0,73,0.00,,,0.00,,2013-04-07 17:13:00,
2013-04-07 12:23:00,44.0,36.0,-100.00,East,100,14.0,19.0,70,0.00,,,0.00,,2013-04-07 17:23:00,
2013-04-07 12:33:00,44.0,36.0,-100.00,East,95,15.0,23.0,71,0.00,,,0.00,,2013-04-07 17:33:00,
2013-04-07 12:42:00,45.0,36.0,-100.00,East,100,16.0,20.0,69,0.00,,,0.00,,2013-04-07 17:42:00,
2013-04-07 12:52:00,46.0,36.0,-100.00,SE,140,16.0,20.0,68,0.00,,,0.00,,2013-04-07 17:52:00,
2013-04-07 13:02:00,48.0,37.0,-100.00,SE,145,14.0,21.0,65,0.00,,,0.00,,2013-04-07 18:02:00,
2013-04-07 13:13:00,49.0,37.0,-100.00,SSE,150,16.0,21.0,63,0.00,,,0.00,,2013-04-07 18:13:00,
2013-04-07 13:22:00,50.0,37.0,-100.00,ESE,120,16.0,22.0,60,0.00,,,0.00,,2013-04-07 18:22:00,
2013-04-07 13:32:00,50.0,37.0,-100.00,SE,130,17.0,24.0,60,0.00,,,0.00,,2013-04-07 18:32:00,
2013-04-07 13:42:00,51.0,37.0,-100.00,SE,135,20.0,26.0,60,0.00,,,0.00,,2013-04-07 18:42:00,
2013-04-07 13:52:00,51.0,37.0,-100.00,SE,140,19.0,25.0,60,0.00,,,0.00,,2013-04-07 18:52:00,
2013-04-07 14:02:00,52.0,39.0,-100.00,SE,140,19.0,26.0,59,0.00,,,0.00,,2013-04-07 19:02:00,
2013-04-07 14:12:00,50.0,37.0,-100.00,SE,135,16.0,28.0,61,0.00,,,0.00,,2013-04-07 19:12:00,
2013-04-07 14:22:00,50.0,37.0,-100.00,SE,145,19.0,22.0,61,0.00,,,0.00,,2013-04-07 19:22:00,
2013-04-07 14:32:00,49.0,37.0,-100.00,SSE,150,19.0,25.0,63,0.00,,,0.00,,2013-04-07 19:32:00,
2013-04-07 14:42:00,50.0,37.0,-100.00,SE,145,19.0,22.0,64,0.00,,,0.00,,2013-04-07 19:42:00,
2013-04-07 14:53:00,49.0,37.0,-100.00,SSE,150,18.0,22.0,64,0.00,,,0.00,,2013-04-07 19:53:00,
2013-04-07 15:02:00,49.0,37.0,-100.00,SE,140,17.0,21.0,65,0.00,,,0.00,,2013-04-07 20:02:00,
2013-04-07 15:13:00,49.0,39.0,-100.00,ESE,120,16.0,21.0,65,0.00,,,0.00,,2013-04-07 20:13:00,
2013-04-07 15:22:00,51.0,39.0,-100.00,ESE,115,17.0,23.0,64,0.00,,,0.00,,2013-04-07 20:22:00,
2013-04-07 15:32:00,51.0,41.0,-100.00,SE,140,19.0,23.0,66,0.00,,,0.00,,2013-04-07 20:32:00,
2013-04-07 15:43:00,50.0,41.0,-100.00,SE,135,13.0,22.0,67,0.00,,,0.00,,2013-04-07 20:43:00,
2013-04-07 15:52:00,51.0,41.0,-100.00,SE,130,11.0,18.0,66,0.00,,,0.00,,2013-04-07 20:52:00,
2013-04-07 16:03:00,51.0,39.0,-100.00,SSE,150,14.0,18.0,66,0.00,,,0.00,,2013-04-07 21:03:00,
2013-04-07 16:13:00,51.0,39.0,-100.00,SE,130,16.0,21.0,66,0.00,,,0.00,,2013-04-07 21:13:00,
2013-04-07 16:22:00,51.0,39.0,-100.00,SSE,165,12.0,21.0,66,0.00,,,0.00,,2013-04-07 21:22:00,
2013-04-07 16:33:00,50.0,41.0,-100.00,SSE,155,12.0,17.0,69,0.00,,,0.00,,2013-04-07 21:33:00,
2013-04-07 16:43:00,50.0,41.0,-100.00,SSE,150,15.0,17.0,73,0.00,,,0.00,,2013-04-07 21:43:00,
2013-04-07 16:53:00,50.0,43.0,-100.00,SE,145,12.0,15.0,76,0.00,,,0.00,,2013-04-07 21:53:00,
2013-04-07 17:03:00,49.0,43.0,-100.00,SE,140,11.0,15.0,78,0.00,,,0.00,,2013-04-07 22:03:00,
2013-04-07 17:13:00,49.0,43.0,-100.00,SE,130,10.0,14.0,79,0.00,,,0.00,,2013-04-07 22:13:00,
2013-04-07 17:23:00,49.0,45.0,-100.00,ESE,120,7.0,11.0,82,0.00,,,0.00,,2013-04-07 22:23:00,
2013-04-07 17:33:00,49.0,45.0,-100.00,ESE,115,7.0,10.0,84,0.00,,,0.00,,2013-04-07 22:33:00,
2013-04-07 17:43:00,50.0,46.0,-100.00,SE,135,9.0,11.0,87,0.00,,,0.00,,2013-04-07 22:43:00,
2013-04-07 17:52:00,49.0,46.0,-100.00,SE,145,6.0,10.0,89,0.00,,,0.00,,2013-04-07 22:52:00,
2013-04-07 18:03:00,49.0,46.0,-100.00,SE,125,7.0,9.0,91,0.00,,,0.00,,2013-04-07 23:03:00,
2013-04-07 18:12:00,49.0,46.0,-100.00,East,95,4.0,7.0,92,0.00,,,0.00,,2013-04-07 23:12:00,
2013-04-07 18:22:00,49.0,46.0,-100.00,East,95,4.0,6.0,92,0.00,,,0.00,,2013-04-07 23:22:00,
2013-04-07 18:32:00,48.0,46.0,-100.00,ENE,75,2.0,7.0,93,0.00,,,0.00,,2013-04-07 23:32:00,
2013-04-07 18:42:00,48.0,46.0,-100.00,ESE,115,3.0,6.0,94,0.00,,,0.00,,2013-04-07 23:42:00,
2013-04-07 18:52:00,48.0,46.0,-100.00,East,100,3.0,6.0,95,0.00,,,0.00,,2013-04-07 23:52:00,
2013-04-07 19:02:00,48.0,46.0,-100.00,NE,55,2.0,3.0,95,0.00,,,0.00,,2013-04-08 00:02:00,
2013-04-07 19:12:00,48.0,46.0,-100.00,ENE,65,2.0,4.0,96,0.00,,,0.00,,2013-04-08 00:12:00,
2013-04-07 19:22:00,47.0,46.0,-100.00,ESE,115,3.0,6.0,97,0.00,,,0.00,,2013-04-08 00:22:00,
2013-04-07 19:32:00,47.0,46.0,-100.00,ESE,120,10.0,12.0,97,0.00,,,0.00,,2013-04-08 00:32:00,
2013-04-07 19:42:00,47.0,46.0,-100.00,SE,125,11.0,12.0,98,0.00,,,0.00,,2013-04-08 00:42:00,
2013-04-07 19:52:00,47.0,46.0,-100.00,SE,135,13.0,16.0,99,0.00,,,0.00,,2013-04-08 00:52:00,
2013-04-07 20:02:00,47.0,46.0,-100.00,SE,130,11.0,15.0,99,0.01,,,0.00,,2013-04-08 01:02:00,
2013-04-07 20:12:00,46.0,46.0,-100.00,ESE,115,6.0,11.0,99,0.00,,,0.00,,2013-04-08 01:12:00,
2013-04-07 20:22:00,47.0,46.0,-100.00,ESE,105,9.0,11.0,99,0.00,,,0.00,,2013-04-08 01:22:00,
2013-04-07 20:33:00,47.0,46.0,-100.00,East,95,9.0,13.0,99,0.00,,,0.00,,2013-04-08 01:33:00,
2013-04-07 20:43:00,47.0,46.0,-100.00,East,90,9.0,12.0,99,0.00,,,0.00,,2013-04-08 01:43:00,
2013-04-07 21:45:00,46.0,46.0,-100.00,East,95,7.0,11.0,99,0.00,,,0.00,,2013-04-08 02:45:00,
2013-04-07 22:33:00,46.0,46.0,-100.00,ESE,115,9.0,14.0,99,0.00,,,0.00,,2013-04-08 03:33:00,